sensor_id;sensor_type;location;lat;lon;timestamp;temperature;humidity
24217;DHT22;12356;49.386;8.688;2023-05-07T00:00:20;18.40;16.60
24217;DHT22;12356;49.386;8.688;2023-05-07T00:02:50;18.40;16.60
24217;DHT22;12356;49.386;8.688;2023-05-07T00:05:21;18.30;17.20
24217;DHT22;12356;49.386;8.688;2023-05-07T00:07:52;18.30;18.70
24217;DHT22;12356;49.386;8.688;2023-05-07T00:10:23;18.20;18.90
24217;DHT22;12356;49.386;8.688;2023-05-07T00:12:54;18.10;19.20
24217;DHT22;12356;49.386;8.688;2023-05-07T00:15:25;18.00;19.50
24217;DHT22;12356;49.386;8.688;2023-05-07T00:17:55;18.00;20.10
24217;DHT22;12356;49.386;8.688;2023-05-07T00:20:26;17.90;20.10
24217;DHT22;12356;49.386;8.688;2023-05-07T00:22:57;17.90;20.20
24217;DHT22;12356;49.386;8.688;2023-05-07T00:25:27;17.90;21.00
24217;DHT22;12356;49.386;8.688;2023-05-07T00:27:58;17.90;20.40
24217;DHT22;12356;49.386;8.688;2023-05-07T00:30:33;17.80;20.80
24217;DHT22;12356;49.386;8.688;2023-05-07T00:33:04;17.70;21.50
24217;DHT22;12356;49.386;8.688;2023-05-07T00:35:35;17.70;22.00
24217;DHT22;12356;49.386;8.688;2023-05-07T00:38:05;17.70;22.60
24217;DHT22;12356;49.386;8.688;2023-05-07T00:40:36;17.60;21.90
24217;DHT22;12356;49.386;8.688;2023-05-07T00:43:06;17.60;21.90
24217;DHT22;12356;49.386;8.688;2023-05-07T00:45:37;17.60;19.60
24217;DHT22;12356;49.386;8.688;2023-05-07T00:48:07;17.60;18.40
24217;DHT22;12356;49.386;8.688;2023-05-07T00:50:38;17.70;18.20
24217;DHT22;12356;49.386;8.688;2023-05-07T00:53:09;17.70;16.70
24217;DHT22;12356;49.386;8.688;2023-05-07T00:55:39;17.80;17.00
24217;DHT22;12356;49.386;8.688;2023-05-07T00:58:10;17.90;16.50
24217;DHT22;12356;49.386;8.688;2023-05-07T01:00:41;17.90;17.10
24217;DHT22;12356;49.386;8.688;2023-05-07T01:03:11;18.00;15.40
24217;DHT22;12356;49.386;8.688;2023-05-07T01:05:43;18.00;15.30
24217;DHT22;12356;49.386;8.688;2023-05-07T01:08:15;18.10;15.00
24217;DHT22;12356;49.386;8.688;2023-05-07T01:10:46;18.10;14.30
24217;DHT22;12356;49.386;8.688;2023-05-07T01:13:18;18.10;15.30
24217;DHT22;12356;49.386;8.688;2023-05-07T01:15:49;18.10;13.70
24217;DHT22;12356;49.386;8.688;2023-05-07T01:18:20;18.20;14.20
24217;DHT22;12356;49.386;8.688;2023-05-07T01:20:51;18.20;14.40
24217;DHT22;12356;49.386;8.688;2023-05-07T01:23:22;18.10;14.70
24217;DHT22;12356;49.386;8.688;2023-05-07T01:25:53;18.20;14.30
24217;DHT22;12356;49.386;8.688;2023-05-07T01:28:24;18.20;14.20
24217;DHT22;12356;49.386;8.688;2023-05-07T01:31:00;18.20;12.60
24217;DHT22;12356;49.386;8.688;2023-05-07T01:33:34;18.20;13.40
24217;DHT22;12356;49.386;8.688;2023-05-07T01:36:06;18.20;13.10
24217;DHT22;12356;49.386;8.688;2023-05-07T01:38:39;18.20;13.40
24217;DHT22;12356;49.386;8.688;2023-05-07T01:41:12;18.20;13.60
24217;DHT22;12356;49.386;8.688;2023-05-07T01:43:43;18.20;13.30
24217;DHT22;12356;49.386;8.688;2023-05-07T01:46:14;18.20;13.50
24217;DHT22;12356;49.386;8.688;2023-05-07T01:48:45;18.20;13.60
24217;DHT22;12356;49.386;8.688;2023-05-07T01:51:16;18.20;12.40
24217;DHT22;12356;49.386;8.688;2023-05-07T01:53:47;18.20;13.10
24217;DHT22;12356;49.386;8.688;2023-05-07T01:56:21;18.20;13.60
24217;DHT22;12356;49.386;8.688;2023-05-07T01:58:52;18.20;12.60
24217;DHT22;12356;49.386;8.688;2023-05-07T02:01:22;18.20;13.30
24217;DHT22;12356;49.386;8.688;2023-05-07T02:03:53;18.20;13.20
24217;DHT22;12356;49.386;8.688;2023-05-07T02:06:24;18.20;13.70
24217;DHT22;12356;49.386;8.688;2023-05-07T02:08:54;18.20;14.20
24217;DHT22;12356;49.386;8.688;2023-05-07T02:11:25;18.20;13.60
24217;DHT22;12356;49.386;8.688;2023-05-07T02:13:56;18.20;14.40
24217;DHT22;12356;49.386;8.688;2023-05-07T02:16:26;18.20;13.80
24217;DHT22;12356;49.386;8.688;2023-05-07T02:18:57;18.20;13.00
24217;DHT22;12356;49.386;8.688;2023-05-07T02:21:28;18.20;13.90
24217;DHT22;12356;49.386;8.688;2023-05-07T02:23:59;18.10;14.80
24217;DHT22;12356;49.386;8.688;2023-05-07T02:26:29;18.10;14.10
24217;DHT22;12356;49.386;8.688;2023-05-07T02:29:00;18.10;14.80
24217;DHT22;12356;49.386;8.688;2023-05-07T02:31:30;18.00;14.60
24217;DHT22;12356;49.386;8.688;2023-05-07T02:34:01;18.00;14.10
24217;DHT22;12356;49.386;8.688;2023-05-07T02:36:32;18.10;14.00
24217;DHT22;12356;49.386;8.688;2023-05-07T02:39:03;18.10;14.10
24217;DHT22;12356;49.386;8.688;2023-05-07T02:41:34;18.10;13.20
24217;DHT22;12356;49.386;8.688;2023-05-07T02:44:05;18.10;14.40
24217;DHT22;12356;49.386;8.688;2023-05-07T02:46:35;18.10;14.60
24217;DHT22;12356;49.386;8.688;2023-05-07T02:49:06;18.10;14.40
24217;DHT22;12356;49.386;8.688;2023-05-07T02:51:37;18.10;14.10
24217;DHT22;12356;49.386;8.688;2023-05-07T02:54:07;18.10;13.90
24217;DHT22;12356;49.386;8.688;2023-05-07T02:56:38;18.10;14.40
24217;DHT22;12356;49.386;8.688;2023-05-07T02:59:08;18.10;14.10
24217;DHT22;12356;49.386;8.688;2023-05-07T03:01:39;18.20;14.00
24217;DHT22;12356;49.386;8.688;2023-05-07T03:04:10;18.20;13.40
24217;DHT22;12356;49.386;8.688;2023-05-07T03:06:40;18.20;13.10
24217;DHT22;12356;49.386;8.688;2023-05-07T03:09:11;18.20;13.70
24217;DHT22;12356;49.386;8.688;2023-05-07T03:11:42;18.20;13.40
24217;DHT22;12356;49.386;8.688;2023-05-07T03:14:12;18.20;15.10
24217;DHT22;12356;49.386;8.688;2023-05-07T03:16:43;18.10;16.10
24217;DHT22;12356;49.386;8.688;2023-05-07T03:19:14;18.10;16.80
24217;DHT22;12356;49.386;8.688;2023-05-07T03:21:44;18.00;16.50
24217;DHT22;12356;49.386;8.688;2023-05-07T03:24:15;17.90;17.50
24217;DHT22;12356;49.386;8.688;2023-05-07T03:26:45;17.80;19.00
24217;DHT22;12356;49.386;8.688;2023-05-07T03:29:16;17.70;19.50
24217;DHT22;12356;49.386;8.688;2023-05-07T03:31:46;17.70;19.20
24217;DHT22;12356;49.386;8.688;2023-05-07T03:34:17;17.60;19.80
24217;DHT22;12356;49.386;8.688;2023-05-07T03:36:52;17.50;19.70
24217;DHT22;12356;49.386;8.688;2023-05-07T03:39:22;17.50;20.30
24217;DHT22;12356;49.386;8.688;2023-05-07T03:41:53;17.40;19.60
24217;DHT22;12356;49.386;8.688;2023-05-07T03:44:24;17.30;20.80
24217;DHT22;12356;49.386;8.688;2023-05-07T03:46:54;17.30;21.10
24217;DHT22;12356;49.386;8.688;2023-05-07T03:49:25;17.20;21.60
24217;DHT22;12356;49.386;8.688;2023-05-07T03:51:56;17.10;21.90
24217;DHT22;12356;49.386;8.688;2023-05-07T03:54:26;17.00;22.70
24217;DHT22;12356;49.386;8.688;2023-05-07T03:56:57;17.00;23.10
24217;DHT22;12356;49.386;8.688;2023-05-07T03:59:28;16.90;23.40
24217;DHT22;12356;49.386;8.688;2023-05-07T04:01:58;16.80;23.40
24217;DHT22;12356;49.386;8.688;2023-05-07T04:04:29;16.80;24.80
24217;DHT22;12356;49.386;8.688;2023-05-07T04:07:03;16.70;25.10
24217;DHT22;12356;49.386;8.688;2023-05-07T04:09:33;16.70;25.20
24217;DHT22;12356;49.386;8.688;2023-05-07T04:12:04;16.70;25.00
24217;DHT22;12356;49.386;8.688;2023-05-07T04:14:35;16.60;25.20
24217;DHT22;12356;49.386;8.688;2023-05-07T04:17:05;16.60;25.20
24217;DHT22;12356;49.386;8.688;2023-05-07T04:19:37;16.50;26.50
24217;DHT22;12356;49.386;8.688;2023-05-07T04:22:09;16.50;26.30
24217;DHT22;12356;49.386;8.688;2023-05-07T04:24:40;16.40;26.00
24217;DHT22;12356;49.386;8.688;2023-05-07T04:27:10;16.40;27.00
24217;DHT22;12356;49.386;8.688;2023-05-07T04:29:41;16.40;27.20
24217;DHT22;12356;49.386;8.688;2023-05-07T04:32:13;16.40;27.70
24217;DHT22;12356;49.386;8.688;2023-05-07T04:34:43;16.40;28.50
24217;DHT22;12356;49.386;8.688;2023-05-07T04:37:14;16.40;28.20
24217;DHT22;12356;49.386;8.688;2023-05-07T04:39:44;16.40;28.80
24217;DHT22;12356;49.386;8.688;2023-05-07T04:42:16;16.30;29.40
24217;DHT22;12356;49.386;8.688;2023-05-07T04:44:47;16.20;29.40
24217;DHT22;12356;49.386;8.688;2023-05-07T04:47:17;16.20;29.40
24217;DHT22;12356;49.386;8.688;2023-05-07T04:49:48;16.20;29.30
24217;DHT22;12356;49.386;8.688;2023-05-07T04:52:18;16.20;30.10
24217;DHT22;12356;49.386;8.688;2023-05-07T04:54:49;16.20;30.70
24217;DHT22;12356;49.386;8.688;2023-05-07T04:57:19;16.20;31.90
24217;DHT22;12356;49.386;8.688;2023-05-07T04:59:50;16.20;32.30
24217;DHT22;12356;49.386;8.688;2023-05-07T05:02:21;16.20;32.10
24217;DHT22;12356;49.386;8.688;2023-05-07T05:04:51;16.10;32.00
24217;DHT22;12356;49.386;8.688;2023-05-07T05:07:22;16.10;32.70
24217;DHT22;12356;49.386;8.688;2023-05-07T05:09:52;16.10;33.00
24217;DHT22;12356;49.386;8.688;2023-05-07T05:12:23;16.10;33.30
24217;DHT22;12356;49.386;8.688;2023-05-07T05:14:54;16.10;33.70
24217;DHT22;12356;49.386;8.688;2023-05-07T05:17:24;16.10;34.70
24217;DHT22;12356;49.386;8.688;2023-05-07T05:19:55;16.20;35.30
24217;DHT22;12356;49.386;8.688;2023-05-07T05:22:26;16.10;36.20
24217;DHT22;12356;49.386;8.688;2023-05-07T05:24:57;16.20;35.90
24217;DHT22;12356;49.386;8.688;2023-05-07T05:27:28;16.30;35.80
24217;DHT22;12356;49.386;8.688;2023-05-07T05:29:59;16.30;36.10
24217;DHT22;12356;49.386;8.688;2023-05-07T05:32:29;16.30;35.90
24217;DHT22;12356;49.386;8.688;2023-05-07T05:35:00;16.40;36.50
24217;DHT22;12356;49.386;8.688;2023-05-07T05:37:30;16.40;35.30
24217;DHT22;12356;49.386;8.688;2023-05-07T05:40:01;16.40;36.40
24217;DHT22;12356;49.386;8.688;2023-05-07T05:42:32;16.40;36.80
24217;DHT22;12356;49.386;8.688;2023-05-07T05:45:03;16.50;36.60
24217;DHT22;12356;49.386;8.688;2023-05-07T05:47:33;16.50;37.50
24217;DHT22;12356;49.386;8.688;2023-05-07T05:50:05;16.50;36.60
24217;DHT22;12356;49.386;8.688;2023-05-07T05:52:36;16.50;35.60
24217;DHT22;12356;49.386;8.688;2023-05-07T05:55:07;16.50;35.50
24217;DHT22;12356;49.386;8.688;2023-05-07T05:57:38;16.60;35.40
24217;DHT22;12356;49.386;8.688;2023-05-07T06:00:09;16.60;34.50
24217;DHT22;12356;49.386;8.688;2023-05-07T06:02:40;16.60;34.10
24217;DHT22;12356;49.386;8.688;2023-05-07T06:05:10;16.60;33.30
24217;DHT22;12356;49.386;8.688;2023-05-07T06:07:41;16.70;33.90
24217;DHT22;12356;49.386;8.688;2023-05-07T06:10:11;16.70;33.20
24217;DHT22;12356;49.386;8.688;2023-05-07T06:12:42;16.80;34.50
24217;DHT22;12356;49.386;8.688;2023-05-07T06:15:12;16.80;32.40
24217;DHT22;12356;49.386;8.688;2023-05-07T06:17:43;16.80;35.00
24217;DHT22;12356;49.386;8.688;2023-05-07T06:20:14;16.90;34.30
24217;DHT22;12356;49.386;8.688;2023-05-07T06:22:44;16.90;34.60
24217;DHT22;12356;49.386;8.688;2023-05-07T06:25:15;17.00;36.60
24217;DHT22;12356;49.386;8.688;2023-05-07T06:27:45;17.00;33.90
24217;DHT22;12356;49.386;8.688;2023-05-07T06:30:16;17.10;33.30
24217;DHT22;12356;49.386;8.688;2023-05-07T06:32:46;17.10;34.60
24217;DHT22;12356;49.386;8.688;2023-05-07T06:35:17;17.10;30.00
24217;DHT22;12356;49.386;8.688;2023-05-07T06:37:48;17.20;29.60
24217;DHT22;12356;49.386;8.688;2023-05-07T06:40:18;17.20;30.30
24217;DHT22;12356;49.386;8.688;2023-05-07T06:42:49;17.30;32.80
24217;DHT22;12356;49.386;8.688;2023-05-07T06:45:20;17.30;34.90
24217;DHT22;12356;49.386;8.688;2023-05-07T06:47:50;17.30;35.00
24217;DHT22;12356;49.386;8.688;2023-05-07T06:50:21;17.30;34.80
24217;DHT22;12356;49.386;8.688;2023-05-07T06:52:52;17.30;36.40
24217;DHT22;12356;49.386;8.688;2023-05-07T06:55:22;17.40;36.50
24217;DHT22;12356;49.386;8.688;2023-05-07T06:57:53;17.30;37.30
24217;DHT22;12356;49.386;8.688;2023-05-07T07:00:23;17.40;37.00
24217;DHT22;12356;49.386;8.688;2023-05-07T07:02:55;17.30;36.00
24217;DHT22;12356;49.386;8.688;2023-05-07T07:05:26;17.40;34.60
24217;DHT22;12356;49.386;8.688;2023-05-07T07:07:56;17.40;34.40
24217;DHT22;12356;49.386;8.688;2023-05-07T07:10:27;17.40;34.50
24217;DHT22;12356;49.386;8.688;2023-05-07T07:12:57;17.40;35.90
24217;DHT22;12356;49.386;8.688;2023-05-07T07:15:28;17.40;37.50
24217;DHT22;12356;49.386;8.688;2023-05-07T07:17:58;17.40;37.90
24217;DHT22;12356;49.386;8.688;2023-05-07T07:20:29;17.40;39.10
24217;DHT22;12356;49.386;8.688;2023-05-07T07:23:00;17.50;38.00
24217;DHT22;12356;49.386;8.688;2023-05-07T07:25:30;17.50;38.40
24217;DHT22;12356;49.386;8.688;2023-05-07T07:28:01;17.50;37.20
24217;DHT22;12356;49.386;8.688;2023-05-07T07:30:32;17.60;37.70
24217;DHT22;12356;49.386;8.688;2023-05-07T07:33:02;17.70;35.60
24217;DHT22;12356;49.386;8.688;2023-05-07T07:35:33;17.80;35.00
24217;DHT22;12356;49.386;8.688;2023-05-07T07:38:04;17.90;33.70
24217;DHT22;12356;49.386;8.688;2023-05-07T07:40:35;17.90;34.00
24217;DHT22;12356;49.386;8.688;2023-05-07T07:43:05;17.90;32.90
24217;DHT22;12356;49.386;8.688;2023-05-07T07:45:36;18.00;32.50
24217;DHT22;12356;49.386;8.688;2023-05-07T07:48:06;18.00;34.60
24217;DHT22;12356;49.386;8.688;2023-05-07T07:50:38;18.00;36.00
24217;DHT22;12356;49.386;8.688;2023-05-07T07:53:08;18.10;37.00
24217;DHT22;12356;49.386;8.688;2023-05-07T07:55:40;18.10;35.90
24217;DHT22;12356;49.386;8.688;2023-05-07T07:58:10;18.20;35.40
24217;DHT22;12356;49.386;8.688;2023-05-07T08:00:41;18.10;33.80
24217;DHT22;12356;49.386;8.688;2023-05-07T08:03:12;18.20;35.40
24217;DHT22;12356;49.386;8.688;2023-05-07T08:05:43;18.30;35.70
24217;DHT22;12356;49.386;8.688;2023-05-07T08:08:13;18.40;31.70
24217;DHT22;12356;49.386;8.688;2023-05-07T08:10:44;18.40;33.10
24217;DHT22;12356;49.386;8.688;2023-05-07T08:13:15;18.40;33.50
24217;DHT22;12356;49.386;8.688;2023-05-07T08:15:45;18.50;33.40
24217;DHT22;12356;49.386;8.688;2023-05-07T08:18:16;18.50;31.40
24217;DHT22;12356;49.386;8.688;2023-05-07T08:20:46;18.60;31.50
24217;DHT22;12356;49.386;8.688;2023-05-07T08:23:17;18.60;30.90
24217;DHT22;12356;49.386;8.688;2023-05-07T08:25:49;18.60;30.60
24217;DHT22;12356;49.386;8.688;2023-05-07T08:28:19;18.60;29.90
24217;DHT22;12356;49.386;8.688;2023-05-07T08:30:51;18.60;29.70
24217;DHT22;12356;49.386;8.688;2023-05-07T08:33:22;18.70;31.90
24217;DHT22;12356;49.386;8.688;2023-05-07T08:35:53;18.70;32.60
24217;DHT22;12356;49.386;8.688;2023-05-07T08:38:23;18.80;29.70
24217;DHT22;12356;49.386;8.688;2023-05-07T08:40:54;18.90;28.60
24217;DHT22;12356;49.386;8.688;2023-05-07T08:43:27;19.00;26.90
24217;DHT22;12356;49.386;8.688;2023-05-07T08:46:00;19.00;27.30
24217;DHT22;12356;49.386;8.688;2023-05-07T08:48:32;19.00;27.30
24217;DHT22;12356;49.386;8.688;2023-05-07T08:51:03;19.10;26.70
24217;DHT22;12356;49.386;8.688;2023-05-07T08:53:34;19.10;28.00
24217;DHT22;12356;49.386;8.688;2023-05-07T08:56:05;19.20;25.20
24217;DHT22;12356;49.386;8.688;2023-05-07T08:58:36;19.20;26.30
24217;DHT22;12356;49.386;8.688;2023-05-07T09:01:09;19.20;26.70
24217;DHT22;12356;49.386;8.688;2023-05-07T09:03:43;19.20;26.40
24217;DHT22;12356;49.386;8.688;2023-05-07T09:06:15;19.30;26.90
24217;DHT22;12356;49.386;8.688;2023-05-07T09:08:53;19.40;26.00
24217;DHT22;12356;49.386;8.688;2023-05-07T09:11:24;19.40;25.90
24217;DHT22;12356;49.386;8.688;2023-05-07T09:13:56;19.60;25.50
24217;DHT22;12356;49.386;8.688;2023-05-07T09:16:29;19.60;24.50
24217;DHT22;12356;49.386;8.688;2023-05-07T09:19:00;19.70;23.80
24217;DHT22;12356;49.386;8.688;2023-05-07T09:21:31;19.80;22.00
24217;DHT22;12356;49.386;8.688;2023-05-07T09:24:02;19.80;22.80
24217;DHT22;12356;49.386;8.688;2023-05-07T09:26:32;19.80;23.70
24217;DHT22;12356;49.386;8.688;2023-05-07T09:29:04;19.90;23.60
24217;DHT22;12356;49.386;8.688;2023-05-07T09:31:37;19.90;23.60
24217;DHT22;12356;49.386;8.688;2023-05-07T09:34:08;19.90;24.60
24217;DHT22;12356;49.386;8.688;2023-05-07T09:36:39;20.00;25.30
24217;DHT22;12356;49.386;8.688;2023-05-07T09:39:09;20.00;25.20
24217;DHT22;12356;49.386;8.688;2023-05-07T09:41:44;20.00;24.10
24217;DHT22;12356;49.386;8.688;2023-05-07T09:44:15;20.10;21.90
24217;DHT22;12356;49.386;8.688;2023-05-07T09:46:47;20.10;22.70
24217;DHT22;12356;49.386;8.688;2023-05-07T09:49:23;20.10;23.50
24217;DHT22;12356;49.386;8.688;2023-05-07T09:51:55;20.10;22.70
24217;DHT22;12356;49.386;8.688;2023-05-07T09:54:27;20.20;21.70
24217;DHT22;12356;49.386;8.688;2023-05-07T09:57:05;20.20;23.70
24217;DHT22;12356;49.386;8.688;2023-05-07T09:59:37;20.20;24.20
24217;DHT22;12356;49.386;8.688;2023-05-07T10:02:09;20.30;23.70
24217;DHT22;12356;49.386;8.688;2023-05-07T10:04:40;20.40;22.10
24217;DHT22;12356;49.386;8.688;2023-05-07T10:07:14;20.40;22.20
24217;DHT22;12356;49.386;8.688;2023-05-07T10:09:46;20.50;24.90
24217;DHT22;12356;49.386;8.688;2023-05-07T10:12:17;20.60;24.00
24217;DHT22;12356;49.386;8.688;2023-05-07T10:14:50;20.70;22.40
24217;DHT22;12356;49.386;8.688;2023-05-07T10:17:23;20.80;22.00
24217;DHT22;12356;49.386;8.688;2023-05-07T10:19:54;20.90;19.20
24217;DHT22;12356;49.386;8.688;2023-05-07T10:22:25;21.00;16.00
24217;DHT22;12356;49.386;8.688;2023-05-07T10:24:57;21.10;15.80
24217;DHT22;12356;49.386;8.688;2023-05-07T10:27:30;21.20;16.40
24217;DHT22;12356;49.386;8.688;2023-05-07T10:30:06;21.30;18.00
24217;DHT22;12356;49.386;8.688;2023-05-07T10:32:49;21.30;16.80
24217;DHT22;12356;49.386;8.688;2023-05-07T10:35:24;21.40;14.00
24217;DHT22;12356;49.386;8.688;2023-05-07T10:37:55;21.50;12.00
24217;DHT22;12356;49.386;8.688;2023-05-07T10:40:26;21.50;13.50
24217;DHT22;12356;49.386;8.688;2023-05-07T10:43:04;21.50;14.00
24217;DHT22;12356;49.386;8.688;2023-05-07T10:45:37;21.50;14.60
24217;DHT22;12356;49.386;8.688;2023-05-07T10:48:13;21.50;11.40
24217;DHT22;12356;49.386;8.688;2023-05-07T10:50:45;21.50;11.90
24217;DHT22;12356;49.386;8.688;2023-05-07T10:58:48;21.60;11.50
24217;DHT22;12356;49.386;8.688;2023-05-07T11:01:55;21.70;12.10
24217;DHT22;12356;49.386;8.688;2023-05-07T11:04:26;21.70;13.20
24217;DHT22;12356;49.386;8.688;2023-05-07T11:09:56;21.80;8.70
24217;DHT22;12356;49.386;8.688;2023-05-07T11:15:15;21.60;8.50
24217;DHT22;12356;49.386;8.688;2023-05-07T11:17:57;21.60;9.40
24217;DHT22;12356;49.386;8.688;2023-05-07T11:26:09;22.00;9.90
24217;DHT22;12356;49.386;8.688;2023-05-07T11:28:41;22.10;8.90
24217;DHT22;12356;49.386;8.688;2023-05-07T11:31:12;22.20;8.20
24217;DHT22;12356;49.386;8.688;2023-05-07T11:33:43;22.20;10.50
24217;DHT22;12356;49.386;8.688;2023-05-07T11:36:15;22.30;8.70
24217;DHT22;12356;49.386;8.688;2023-05-07T11:38:46;22.40;10.70
24217;DHT22;12356;49.386;8.688;2023-05-07T11:41:17;22.50;11.60
24217;DHT22;12356;49.386;8.688;2023-05-07T11:43:56;22.60;8.80
24217;DHT22;12356;49.386;8.688;2023-05-07T11:46:27;22.70;9.10
24217;DHT22;12356;49.386;8.688;2023-05-07T11:48:58;22.70;9.60
24217;DHT22;12356;49.386;8.688;2023-05-07T11:51:30;22.70;9.60
24217;DHT22;12356;49.386;8.688;2023-05-07T11:54:03;22.80;10.40
24217;DHT22;12356;49.386;8.688;2023-05-07T11:56:35;22.80;10.40
24217;DHT22;12356;49.386;8.688;2023-05-07T11:59:09;22.80;7.90
24217;DHT22;12356;49.386;8.688;2023-05-07T12:01:39;22.80;9.20
24217;DHT22;12356;49.386;8.688;2023-05-07T12:04:10;22.80;9.80
24217;DHT22;12356;49.386;8.688;2023-05-07T12:06:40;22.90;10.10
24217;DHT22;12356;49.386;8.688;2023-05-07T12:09:11;23.00;9.60
24217;DHT22;12356;49.386;8.688;2023-05-07T12:11:45;23.00;10.70
24217;DHT22;12356;49.386;8.688;2023-05-07T12:14:16;23.00;12.00
24217;DHT22;12356;49.386;8.688;2023-05-07T12:16:47;23.00;10.30
24217;DHT22;12356;49.386;8.688;2023-05-07T12:19:17;23.00;10.50
24217;DHT22;12356;49.386;8.688;2023-05-07T12:21:48;23.00;11.50
24217;DHT22;12356;49.386;8.688;2023-05-07T12:24:19;23.10;10.90
24217;DHT22;12356;49.386;8.688;2023-05-07T12:26:49;23.10;9.80
24217;DHT22;12356;49.386;8.688;2023-05-07T12:29:23;23.10;9.60
24217;DHT22;12356;49.386;8.688;2023-05-07T12:31:54;23.00;9.60
24217;DHT22;12356;49.386;8.688;2023-05-07T12:34:24;23.10;10.90
24217;DHT22;12356;49.386;8.688;2023-05-07T12:36:55;23.10;10.10
24217;DHT22;12356;49.386;8.688;2023-05-07T12:39:26;23.10;11.70
24217;DHT22;12356;49.386;8.688;2023-05-07T12:41:58;23.10;12.20
24217;DHT22;12356;49.386;8.688;2023-05-07T12:44:32;23.10;10.70
24217;DHT22;12356;49.386;8.688;2023-05-07T12:47:03;23.20;10.50
24217;DHT22;12356;49.386;8.688;2023-05-07T12:49:34;23.20;9.80
24217;DHT22;12356;49.386;8.688;2023-05-07T12:52:08;23.20;9.80
24217;DHT22;12356;49.386;8.688;2023-05-07T12:54:38;23.10;10.40
24217;DHT22;12356;49.386;8.688;2023-05-07T12:57:10;23.10;7.60
24217;DHT22;12356;49.386;8.688;2023-05-07T12:59:41;23.00;10.20
24217;DHT22;12356;49.386;8.688;2023-05-07T13:02:12;22.90;10.50
24217;DHT22;12356;49.386;8.688;2023-05-07T13:04:42;22.90;9.60
24217;DHT22;12356;49.386;8.688;2023-05-07T13:07:13;22.90;9.00
24217;DHT22;12356;49.386;8.688;2023-05-07T13:09:43;22.90;10.70
24217;DHT22;12356;49.386;8.688;2023-05-07T13:12:14;22.90;10.20
24217;DHT22;12356;49.386;8.688;2023-05-07T13:14:45;22.80;11.00
24217;DHT22;12356;49.386;8.688;2023-05-07T13:17:15;22.90;12.60
24217;DHT22;12356;49.386;8.688;2023-05-07T13:19:46;22.80;10.60
24217;DHT22;12356;49.386;8.688;2023-05-07T13:22:16;22.80;11.70
24217;DHT22;12356;49.386;8.688;2023-05-07T13:24:47;22.70;11.10
24217;DHT22;12356;49.386;8.688;2023-05-07T13:27:17;22.70;11.40
24217;DHT22;12356;49.386;8.688;2023-05-07T13:29:49;22.60;10.60
24217;DHT22;12356;49.386;8.688;2023-05-07T13:32:20;22.60;10.20
24217;DHT22;12356;49.386;8.688;2023-05-07T13:34:50;22.60;10.60
24217;DHT22;12356;49.386;8.688;2023-05-07T13:37:21;22.50;11.10
24217;DHT22;12356;49.386;8.688;2023-05-07T13:39:51;22.50;11.70
24217;DHT22;12356;49.386;8.688;2023-05-07T13:42:22;22.40;11.70
24217;DHT22;12356;49.386;8.688;2023-05-07T13:44:52;22.40;11.70
24217;DHT22;12356;49.386;8.688;2023-05-07T13:47:23;22.40;10.80
24217;DHT22;12356;49.386;8.688;2023-05-07T13:49:53;22.30;10.50
24217;DHT22;12356;49.386;8.688;2023-05-07T13:52:24;22.30;11.40
24217;DHT22;12356;49.386;8.688;2023-05-07T13:54:54;22.20;10.80
24217;DHT22;12356;49.386;8.688;2023-05-07T13:57:26;22.20;10.20
24217;DHT22;12356;49.386;8.688;2023-05-07T13:59:57;22.20;11.40
24217;DHT22;12356;49.386;8.688;2023-05-07T14:02:27;22.20;11.30
24217;DHT22;12356;49.386;8.688;2023-05-07T14:04:58;22.20;12.10
24217;DHT22;12356;49.386;8.688;2023-05-07T14:07:28;22.10;11.20
24217;DHT22;12356;49.386;8.688;2023-05-07T14:09:59;22.10;10.90
24217;DHT22;12356;49.386;8.688;2023-05-07T14:12:30;22.10;12.80
24217;DHT22;12356;49.386;8.688;2023-05-07T14:15:01;21.90;13.70
24217;DHT22;12356;49.386;8.688;2023-05-07T14:17:32;21.80;14.70
24217;DHT22;12356;49.386;8.688;2023-05-07T14:20:03;21.80;15.20
24217;DHT22;12356;49.386;8.688;2023-05-07T14:22:33;21.60;14.70
24217;DHT22;12356;49.386;8.688;2023-05-07T14:25:04;21.50;14.40
24217;DHT22;12356;49.386;8.688;2023-05-07T14:27:35;21.50;15.20
24217;DHT22;12356;49.386;8.688;2023-05-07T14:30:06;21.20;17.40
24217;DHT22;12356;49.386;8.688;2023-05-07T14:32:37;21.00;18.90
24217;DHT22;12356;49.386;8.688;2023-05-07T14:35:08;20.80;20.60
24217;DHT22;12356;49.386;8.688;2023-05-07T14:37:38;20.60;21.30
24217;DHT22;12356;49.386;8.688;2023-05-07T14:40:09;20.40;22.80
24217;DHT22;12356;49.386;8.688;2023-05-07T14:42:40;20.30;23.40
24217;DHT22;12356;49.386;8.688;2023-05-07T14:45:11;20.20;24.00
24217;DHT22;12356;49.386;8.688;2023-05-07T14:47:41;20.10;27.50
24217;DHT22;12356;49.386;8.688;2023-05-07T14:50:12;19.90;29.60
24217;DHT22;12356;49.386;8.688;2023-05-07T14:52:42;19.70;30.70
24217;DHT22;12356;49.386;8.688;2023-05-07T14:55:13;19.40;40.80
24217;DHT22;12356;49.386;8.688;2023-05-07T14:57:44;19.10;42.90
24217;DHT22;12356;49.386;8.688;2023-05-07T15:00:14;19.00;46.60
24217;DHT22;12356;49.386;8.688;2023-05-07T15:02:45;18.80;48.50
24217;DHT22;12356;49.386;8.688;2023-05-07T15:05:16;18.60;48.50
24217;DHT22;12356;49.386;8.688;2023-05-07T15:07:48;18.40;52.10
24217;DHT22;12356;49.386;8.688;2023-05-07T15:10:19;18.40;56.40
24217;DHT22;12356;49.386;8.688;2023-05-07T15:12:49;18.30;57.40
24217;DHT22;12356;49.386;8.688;2023-05-07T15:15:20;18.20;58.00
24217;DHT22;12356;49.386;8.688;2023-05-07T15:17:50;18.00;60.70
24217;DHT22;12356;49.386;8.688;2023-05-07T15:20:21;18.00;63.40
24217;DHT22;12356;49.386;8.688;2023-05-07T15:22:52;17.90;64.40
24217;DHT22;12356;49.386;8.688;2023-05-07T15:25:23;17.90;65.00
24217;DHT22;12356;49.386;8.688;2023-05-07T15:27:53;17.80;66.30
24217;DHT22;12356;49.386;8.688;2023-05-07T15:30:24;17.80;69.00
24217;DHT22;12356;49.386;8.688;2023-05-07T15:32:54;17.70;70.60
24217;DHT22;12356;49.386;8.688;2023-05-07T15:35:25;17.70;70.10
24217;DHT22;12356;49.386;8.688;2023-05-07T15:37:56;17.70;71.20
24217;DHT22;12356;49.386;8.688;2023-05-07T15:40:27;17.50;71.50
24217;DHT22;12356;49.386;8.688;2023-05-07T15:42:58;17.50;74.10
24217;DHT22;12356;49.386;8.688;2023-05-07T15:45:29;17.50;76.20
24217;DHT22;12356;49.386;8.688;2023-05-07T15:47:59;17.40;76.60
24217;DHT22;12356;49.386;8.688;2023-05-07T15:50:30;17.40;76.90
24217;DHT22;12356;49.386;8.688;2023-05-07T15:53:03;17.40;76.20
24217;DHT22;12356;49.386;8.688;2023-05-07T15:55:34;17.40;75.30
24217;DHT22;12356;49.386;8.688;2023-05-07T15:58:05;17.40;75.50
24217;DHT22;12356;49.386;8.688;2023-05-07T16:00:37;17.40;76.60
24217;DHT22;12356;49.386;8.688;2023-05-07T16:03:10;17.30;76.00
24217;DHT22;12356;49.386;8.688;2023-05-07T16:05:40;17.30;75.70
24217;DHT22;12356;49.386;8.688;2023-05-07T16:08:11;17.30;75.70
24217;DHT22;12356;49.386;8.688;2023-05-07T16:10:42;17.30;75.50
24217;DHT22;12356;49.386;8.688;2023-05-07T16:13:12;17.30;75.80